Terminal Aerodrome Forecast
Issued by NWS

Home | Current Version | Previous Version | Text Only | Print | Product List | Glossary On
Versions: 1 2 3 4 5 6 7 8 9 10 11 12 13 14 15 16
000
FTUS43 KGRB 251500 AAB
TAFMTW
TAF AMD
KMTW 251501Z 2515/2612 14005KT 6SM BR VCTS SCT010 SCT035 OVC080CB
      TEMPO 2515/2516 4SM TSRA SCT012 BKN070CB
     FM251600 19007KT 6SM HZ BKN035 BKN070
     FM251900 21010G16KT 6SM HZ SCT040
      TEMPO 2522/2602 2SM TSRA OVC025CB
     FM260200 27004KT P6SM SCT040 SCT070
     FM260500 31005KT P6SM SCT050 BKN080=

USA.gov is the U.S. government's official web portal to all federal, state and local government web resources and services.